South Houston, Texas
Current Conditions -  °F | °C
As of 10:07 AM on Sunday 21 Dec 2014 (Local Time) from KHOU Reporting Station
Overcast Overcast  
Wind Chill: 52°   Ceiling: 3000
Heat Index: 52°   Visibility: 10mi
Dew Point: 46°   Wind: 3mph
Humidity: 82%   Direction: 70°ENE
Pressure: 30.13"   Gusts: NA
Location:  29.66°N, 95.24°W
Report Text: KHOU 211607Z 07003KT 10SM OVC030 11/08 A3013 RMK AO2
Loading
Personal Weather Stations






























Interactive Weather Map New forecast layout! Learn more

10-Day Weather Forecast

Advertisements
Track Severe Weather on mobile